WetterOnline ( http://www.wetteronline.de )

Wetter aktuell Freiburg

Aktuelles Wetter: Freiburg/Flugplatz (236m)

6-stündlich | Neueste Meldungen
Ortszeit Temperatur Wetter
Mo, 23.04. 8:00 19.8° C wolkig
Mo, 23.04. 2:00 14.8° C bedeckt
So, 22.04. 20:00 24.6° C wolkig
So, 22.04. 14:00 27.1° C leicht bewölkt
So, 22.04. 8:00 14.9° C leicht bewölkt
So, 22.04. 2:00 14.5° C fast wolkenlos
Sa, 21.04. 20:00 24.5° C fast wolkenlos
Sa, 21.04. 14:00 26.3° C fast wolkenlos
Ortszeit Temperatur Wetter
Mo, 23.04. 9:30 19.6° C wolkig
Mo, 23.04. 9:20 19.6° C wolkig
Mo, 23.04. 9:10 20.0° C wolkig
Mo, 23.04. 9:00 20.2° C bedeckt
Mo, 23.04. 8:50 20.2° C bedeckt
Mo, 23.04. 8:40 20.0° C bewölkt
Mo, 23.04. 8:30 20.3° C bewölkt
Mo, 23.04. 8:00 19.8° C wolkig
Mo, 23.04. 7:30 19.2° C bewölkt
Mo, 23.04. 7:00 13.3° C bedeckt
Mo, 23.04. 6:30 12.6° C bedeckt
Ortszeit Relative Feuchte Sichtweite
Mo, 23.04. 8:00 44% 28 km
Mo, 23.04. 2:00 74% 27 km
So, 22.04. 20:00 36% 30 km
So, 22.04. 14:00 31% 26 km
So, 22.04. 8:00 73% 22 km
So, 22.04. 2:00 77% 20 km
Sa, 21.04. 20:00 40% 35 km
Sa, 21.04. 14:00 28% 30 km
Ortszeit Relative Feuchte Sichtweite
Mo, 23.04. 9:30 48% 65 km
Mo, 23.04. 9:20 48% -
Mo, 23.04. 9:10 46% -
Mo, 23.04. 9:00 42% 50 km
Mo, 23.04. 8:50 42% -
Mo, 23.04. 8:40 43% -
Mo, 23.04. 8:30 41% 27 km
Mo, 23.04. 8:00 44% 28 km
Mo, 23.04. 7:30 46% 30 km
Mo, 23.04. 7:00 78% 23 km
Mo, 23.04. 6:30 80% 23 km
Ortszeit Niederschlagsmenge Niederschlagsart
Mo, 23.04. 8:00 0.0 l/m2 in 12 Std. -
Mo, 23.04. 2:00 0.0 l/m2 in 6 Std. -
So, 22.04. 20:00 0.0 l/m2 in 12 Std. -
So, 22.04. 14:00 0.0 l/m2 in 6 Std. -
So, 22.04. 8:00 0.0 l/m2 in 12 Std. -
So, 22.04. 2:00 0.0 l/m2 in 6 Std. -
Sa, 21.04. 20:00 0.0 l/m2 in 12 Std. -
Sa, 21.04. 14:00 0.0 l/m2 in 6 Std. -
Ortszeit Niederschlagsmenge Niederschlagsart
Mo, 23.04. 9:30 0.0 l/m2 in 1 Std. -
Mo, 23.04. 9:20 keine Meldung -
Mo, 23.04. 9:10 keine Meldung -
Mo, 23.04. 9:00 0.0 l/m2 in 1 Std. -
Mo, 23.04. 8:50 keine Meldung -
Mo, 23.04. 8:40 keine Meldung -
Mo, 23.04. 8:30 0.0 l/m2 in 1 Std. -
Mo, 23.04. 8:00 0.0 l/m2 in 1 Std. -
Mo, 23.04. 7:30 0.0 l/m2 in 1 Std. -
Mo, 23.04. 7:00 0.0 l/m2 in 1 Std. -
Mo, 23.04. 6:30 0.0 l/m2 in 1 Std. -
Ortszeit Stärke Spitze Richtung
km/h Bft. km/h Grad Sektor
Mo, 23.04. 8:00 17 3 26 220° SW
Mo, 23.04. 2:00 0 0 18 - -
So, 22.04. 20:00 11 2 36 220° SW
So, 22.04. 14:00 18 3 32 210° SW
So, 22.04. 8:00 4 1 25 160° S
So, 22.04. 2:00 4 1 11 60° NO
Sa, 21.04. 20:00 4 1 22 20° N
Sa, 21.04. 14:00 9 2 19 320° NW
Ortszeit Stärke Spitze Richtung
km/h Bft. km/h Grad Sektor
Mo, 23.04. 9:30 11 2 25 250° W
Mo, 23.04. 9:20 11 2 - 250° W
Mo, 23.04. 9:10 13 3 - 250° W
Mo, 23.04. 9:00 17 3 26 220° SW
Mo, 23.04. 8:50 17 3 - 220° SW
Mo, 23.04. 8:40 19 3 - 220° SW
Mo, 23.04. 8:30 18 3 25 210° SW
Mo, 23.04. 8:00 17 3 26 220° SW
Mo, 23.04. 7:30 14 3 22 210° SW
Mo, 23.04. 7:00 2 1 6 130° SO
Mo, 23.04. 6:30 2 1 4 30° NO
Ortszeit Untergrenze Bedeckung Gattung
total tief tief mittel hoch
Mo, 23.04. 8:00 2400 m 7/8 4/8 - - -
Mo, 23.04. 2:00 3000 m 8/8 8/8 - - -
So, 22.04. 20:00 7800 m 7/8 0/8 - - -
So, 22.04. 14:00 10500 m 7/8 0/8 - - -
So, 22.04. 8:00 10500 m 3/8 0/8 - - -
So, 22.04. 2:00 3900 m 1/8 1/8 - - -
Sa, 21.04. 20:00 10500 m 2/8 0/8 - - -
Sa, 21.04. 14:00 12000 m 2/8 0/8 - - -
Ortszeit Bedeckungsgrad in Achtel und Wolkenuntergrenze
Mo, 23.04. 9:30 2(1500m) 3(2100m) 8(9000m)
Mo, 23.04. 9:20 2(1500m) 3(2100m) 8(9000m)
Mo, 23.04. 9:10 2(1500m) 8(9000m) 8(10500m)
Mo, 23.04. 9:00 3(2100m) 8(2400m) 8(9000m)
Mo, 23.04. 8:50 3(2100m) 8(2400m)
Mo, 23.04. 8:40 7(2400m) 7(3300m)
Mo, 23.04. 8:30 6(2700m) 7(3300m) 7(9000m)
Mo, 23.04. 8:00 4(2400m) 7(3600m) 7(9000m)
Mo, 23.04. 7:30 7(3000m) 7(3900m) 8(9000m)
Mo, 23.04. 7:00 8(2700m) 8(7500m) 8(9000m)
Mo, 23.04. 6:30 7(3000m) 8(6900m) 8(7500m)
Ortszeit Luftdruck NN (hPa) Tendenz (hPa in 3 Std.)
Mo, 23.04. 8:00 1016 + 0,2
Mo, 23.04. 2:00 1016 + 0,4
So, 22.04. 20:00 1013 + 0,1
So, 22.04. 14:00 1014 - 1,0
So, 22.04. 8:00 1016 0,0
So, 22.04. 2:00 1017 - 0,1
Sa, 21.04. 20:00 1016 - 0,8
Sa, 21.04. 14:00 1018 - 1,7
Ortszeit Luftdruck NN (hPa) Tendenz (hPa in 3 Std.)
Mo, 23.04. 9:30 1017 + 1,3
Mo, 23.04. 9:20 1017 keine Meldung
Mo, 23.04. 9:10 1017 keine Meldung
Mo, 23.04. 9:00 1017 + 0,9
Mo, 23.04. 8:50 1017 keine Meldung
Mo, 23.04. 8:40 1016 keine Meldung
Mo, 23.04. 8:30 1016 + 0,4
Mo, 23.04. 8:00 1016 + 0,2
Mo, 23.04. 7:30 1016 + 0,1
Mo, 23.04. 7:00 1016 + 0,2
Mo, 23.04. 6:30 1016 + 0,3
Ortszeit Schneehöhe (cm)
Mo, 23.04. 8:00 0
Mo, 23.04. 2:00 0
So, 22.04. 20:00 0
So, 22.04. 14:00 0
So, 22.04. 8:00 0
So, 22.04. 2:00 0
Sa, 21.04. 20:00 0
Sa, 21.04. 14:00 0
Ortszeit Schneehöhe (cm)
Mo, 23.04. 9:30 0
Mo, 23.04. 9:20 0
Mo, 23.04. 9:10 0
Mo, 23.04. 9:00 0
Mo, 23.04. 8:50 0
Mo, 23.04. 8:40 0
Mo, 23.04. 8:30 0
Mo, 23.04. 8:00 0
Mo, 23.04. 7:30 0
Mo, 23.04. 7:00 0
Mo, 23.04. 6:30 0
Link zu dieser Seite / Seite empfehlen

Das Wetter in ...